Time;durP1;ratioP1;P1;durP2;ratioP2;P2;SDS_P1;SDS_P2;PMS_P1;PMS_P2;Temp;Humidity;BMP_temperature;BMP_pressure;BME280_temperature;BME280_humidity;BME280_pressure;Samples;Min_cycle;Max_cycle;Signal;HPM_P1;HPM_P2
2022/05/25 00:00:54;;;;;;;10.18;7.50;;;15.10;71.10;;;;;;5133099;27;20059;-64
2022/05/25 00:03:19;;;;;;;9.43;6.85;;;15.10;71.10;;;;;;5129035;27;20049;-64
2022/05/25 00:05:45;;;;;;;8.40;6.60;;;15.00;71.10;;;;;;5128129;27;20119;-65
2022/05/25 00:08:11;;;;;;;11.13;7.70;;;15.00;71.20;;;;;;5120540;27;20371;-64
2022/05/25 00:10:37;;;;;;;11.60;7.05;;;15.00;71.30;;;;;;5133969;27;20067;-66
2022/05/25 00:13:03;;;;;;;10.68;6.85;;;15.00;71.30;;;;;;5132261;27;20073;-65
2022/05/25 00:15:29;;;;;;;10.02;6.70;;;15.00;71.30;;;;;;5119048;27;20036;-64
2022/05/25 00:17:55;;;;;;;11.23;7.85;;;15.00;71.30;;;;;;5108341;27;20376;-64
2022/05/25 00:20:21;;;;;;;9.52;7.05;;;15.00;71.40;;;;;;5131668;27;20019;-64
2022/05/25 00:22:52;;;;;;;9.05;6.53;;;15.00;71.40;;;;;;5131991;27;20019;-65
2022/05/25 00:25:29;;;;;;;9.55;7.10;;;15.00;71.40;;;;;;5128242;27;20436;-64
2022/05/25 00:27:56;;;;;;;10.00;7.03;;;15.00;71.50;;;;;;5117061;27;20024;-64
2022/05/25 00:30:22;;;;;;;10.80;6.88;;;14.90;71.50;;;;;;5129978;27;20075;-64
2022/05/25 00:32:47;;;;;;;9.35;6.97;;;14.90;71.50;;;;;;5130614;27;20023;-64
2022/05/25 00:35:17;;;;;;;10.18;6.78;;;14.90;71.60;;;;;;5124412;27;20458;-64
2022/05/25 00:37:43;;;;;;;10.50;7.57;;;14.90;71.60;;;;;;5120661;27;20046;-65
2022/05/25 00:40:13;;;;;;;11.98;7.57;;;14.90;71.60;;;;;;5123718;27;20027;-64
2022/05/25 00:42:39;;;;;;;11.27;7.72;;;14.90;71.80;;;;;;5122482;27;20084;-65
2022/05/25 00:45:06;;;;;;;10.25;7.05;;;14.90;71.80;;;;;;5118771;27;20421;-64
2022/05/25 00:47:34;;;;;;;10.20;7.88;;;14.80;71.70;;;;;;5115644;27;20024;-65
2022/05/25 00:50:00;;;;;;;9.65;7.13;;;14.80;71.80;;;;;;5118331;27;20432;-65
2022/05/25 00:52:26;;;;;;;12.32;8.07;;;14.80;71.80;;;;;;5122745;27;20027;-64
2022/05/25 00:55:02;;;;;;;10.52;7.07;;;14.80;71.80;;;;;;5119560;27;20035;-65
2022/05/25 00:57:35;;;;;;;9.85;7.22;;;14.80;71.80;;;;;;5119997;27;20409;-65
2022/05/25 01:00:09;;;;;;;10.38;7.93;;;14.80;71.80;;;;;;5132909;27;20364;-65
2022/05/25 01:02:38;;;;;;;11.32;7.75;;;14.80;71.80;;;;;;5134657;27;20027;-64
2022/05/25 01:05:04;;;;;;;11.00;7.80;;;14.80;72.00;;;;;;5119356;27;20111;-64
2022/05/25 01:07:51;;;;;;;12.90;7.75;;;14.80;72.00;;;;;;5119273;27;20127;-64
2022/05/25 01:10:41;;;;;;;10.43;7.68;;;14.70;72.00;;;;;;5133409;27;20062;-64
2022/05/25 01:13:22;;;;;;;11.38;7.45;;;14.70;72.00;;;;;;5135852;27;20473;-64
2022/05/25 01:16:07;;;;;;;10.65;7.50;;;14.70;72.00;;;;;;5132902;28;20125;-65
2022/05/25 01:18:48;;;;;;;9.55;7.18;;;14.60;72.00;;;;;;5114601;28;20363;-64
2022/05/25 01:21:42;;;;;;;11.10;7.65;;;14.60;72.00;;;;;;5135656;27;20526;-64
2022/05/25 01:24:12;;;;;;;9.35;6.88;;;14.70;72.10;;;;;;5129615;27;20455;-65
2022/05/25 01:27:12;;;;;;;9.50;7.10;;;14.60;72.10;;;;;;5132917;28;20038;-64
2022/05/25 01:29:55;;;;;;;9.15;6.20;;;14.60;72.20;;;;;;5133654;27;20047;-64
2022/05/25 01:32:29;;;;;;;10.85;6.53;;;14.60;72.20;;;;;;5135446;27;20019;-65
2022/05/25 01:35:19;;;;;;;10.50;6.85;;;14.60;72.20;;;;;;5132051;27;20031;-64
2022/05/25 01:38:14;;;;;;;10.65;7.13;;;14.50;72.10;;;;;;5125631;27;20051;-65
2022/05/25 01:40:54;;;;;;;10.13;6.47;;;14.50;72.20;;;;;;5137751;27;20424;-65
2022/05/25 01:43:26;;;;;;;9.55;6.78;;;14.50;72.20;;;;;;5137758;27;20055;-64
2022/05/25 01:45:59;;;;;;;8.95;6.57;;;14.50;72.20;;;;;;5137701;27;20031;-68
2022/05/25 01:48:27;;;;;;;9.52;6.70;;;14.50;72.20;;;;;;5137384;27;20387;-65
2022/05/25 01:50:58;;;;;;;10.27;7.07;;;14.40;72.20;;;;;;5123041;27;20042;-65
2022/05/25 01:53:30;;;;;;;11.93;7.78;;;14.40;72.30;;;;;;5117563;28;20038;-65
2022/05/25 01:56:01;;;;;;;8.63;6.35;;;14.40;72.30;;;;;;5118043;27;20034;-65
2022/05/25 01:58:27;;;;;;;11.80;7.15;;;14.40;72.30;;;;;;5125310;27;20027;-65
2022/05/25 02:00:59;;;;;;;10.75;7.55;;;14.40;72.30;;;;;;5128090;27;20024;-65
2022/05/25 02:06:32;;;;;;;10.73;7.63;;;14.40;72.30;;;;;;5131577;27;20023;-65
2022/05/25 02:09:40;;;;;;;10.73;6.63;;;14.40;72.30;;;;;;5136290;27;20469;-65
2022/05/25 02:12:46;;;;;;;10.95;7.55;;;14.40;72.40;;;;;;5100550;28;20421;-65
2022/05/25 02:15:27;;;;;;;11.40;7.03;;;14.30;72.30;;;;;;5121200;27;20130;-64
2022/05/25 02:18:08;;;;;;;10.68;6.78;;;14.30;72.40;;;;;;5129549;27;20024;-65
2022/05/25 02:20:48;;;;;;;8.65;5.78;;;14.30;72.40;;;;;;5120238;27;20483;-65
2022/05/25 02:23:19;;;;;;;12.32;6.85;;;14.30;72.40;;;;;;5118705;28;20111;-64
2022/05/25 02:25:58;;;;;;;10.00;6.28;;;14.20;72.30;;;;;;5125849;27;20106;-65
2022/05/25 02:28:29;;;;;;;9.07;5.68;;;14.30;72.40;;;;;;5124401;27;20418;-65
2022/05/25 02:30:58;;;;;;;10.45;6.63;;;14.20;72.40;;;;;;5127349;27;20035;-65
2022/05/25 02:33:32;;;;;;;9.52;6.03;;;14.20;72.40;;;;;;5136823;27;20418;-65
2022/05/25 02:36:00;;;;;;;10.32;6.65;;;14.20;72.40;;;;;;5127659;27;20046;-65
2022/05/25 02:38:26;;;;;;;10.70;6.50;;;14.20;72.40;;;;;;5118043;28;20047;-65
2022/05/25 02:41:07;;;;;;;10.15;6.72;;;14.20;72.40;;;;;;5127415;27;20045;-65
2022/05/25 02:43:37;;;;;;;9.35;6.82;;;14.20;72.40;;;;;;5137790;27;20102;-65
2022/05/25 02:46:05;;;;;;;9.10;6.65;;;14.20;72.40;;;;;;5135304;27;20118;-65
2022/05/25 02:48:30;;;;;;;10.57;7.13;;;14.20;72.40;;;;;;5134252;27;20024;-65
2022/05/25 02:50:56;;;;;;;9.88;6.80;;;14.20;72.40;;;;;;5134749;27;20038;-65
2022/05/25 02:53:22;;;;;;;9.10;6.38;;;14.20;72.50;;;;;;5138006;27;20129;-65
2022/05/25 02:55:49;;;;;;;9.45;6.68;;;14.10;72.40;;;;;;5136030;27;20084;-65
2022/05/25 02:58:15;;;;;;;10.20;6.82;;;14.10;72.50;;;;;;5137963;27;20356;-65
2022/05/25 03:00:40;;;;;;;9.10;6.78;;;14.10;72.40;;;;;;5130923;27;20031;-66
2022/05/25 03:03:06;;;;;;;9.27;6.85;;;14.10;72.40;;;;;;5128021;27;20080;-65
2022/05/25 03:05:32;;;;;;;10.32;6.70;;;14.10;72.40;;;;;;5115352;27;20046;-65
2022/05/25 03:07:57;;;;;;;11.75;7.55;;;14.10;72.40;;;;;;5137670;27;20103;-65
2022/05/25 03:10:23;;;;;;;10.73;7.32;;;14.10;72.50;;;;;;5127946;27;20336;-65
2022/05/25 03:12:48;;;;;;;9.30;6.07;;;14.10;72.50;;;;;;5136046;27;20480;-65
2022/05/25 03:15:14;;;;;;;9.95;6.93;;;14.10;72.50;;;;;;5137931;27;20038;-65
2022/05/25 03:17:40;;;;;;;9.73;6.60;;;14.00;72.40;;;;;;5110229;28;20034;-65
2022/05/25 03:20:06;;;;;;;10.90;6.22;;;14.00;72.40;;;;;;5119042;27;20019;-65
2022/05/25 03:22:34;;;;;;;10.63;6.63;;;14.00;72.50;;;;;;5125559;27;20023;-65
2022/05/25 03:25:00;;;;;;;11.88;7.32;;;14.00;72.40;;;;;;5128419;27;20114;-65
2022/05/25 03:27:25;;;;;;;9.48;6.28;;;14.00;72.40;;;;;;5109647;27;20437;-66
2022/05/25 03:29:51;;;;;;;9.82;7.07;;;14.00;72.40;;;;;;5125656;27;20061;-65
2022/05/25 03:32:17;;;;;;;9.85;6.50;;;14.00;72.40;;;;;;5128912;27;20035;-65
2022/05/25 03:34:42;;;;;;;9.18;6.78;;;14.00;72.50;;;;;;5128112;27;20125;-65
2022/05/25 03:37:08;;;;;;;9.45;6.38;;;14.00;72.50;;;;;;5127405;27;20067;-65
2022/05/25 03:39:34;;;;;;;10.75;6.55;;;13.90;72.40;;;;;;5112519;27;20067;-65
2022/05/25 03:42:06;;;;;;;9.75;6.28;;;14.00;72.40;;;;;;5122142;27;20027;-65
2022/05/25 03:44:32;;;;;;;10.88;7.03;;;14.00;72.40;;;;;;5137082;27;20038;-65
2022/05/25 03:46:57;;;;;;;10.70;6.00;;;14.00;72.40;;;;;;5135351;27;20027;-65
2022/05/25 03:49:23;;;;;;;9.25;6.20;;;13.90;72.40;;;;;;5119333;27;20111;-65
2022/05/25 03:51:49;;;;;;;11.98;6.88;;;14.00;72.40;;;;;;5129024;27;20027;-65
2022/05/25 03:54:14;;;;;;;12.20;6.82;;;14.00;72.50;;;;;;5134282;27;20023;-65
2022/05/25 03:56:40;;;;;;;11.15;6.28;;;13.90;72.40;;;;;;5134905;27;20027;-65
2022/05/25 03:59:06;;;;;;;10.27;6.43;;;13.90;72.40;;;;;;5135683;27;20073;-65
2022/05/25 04:01:34;;;;;;;11.00;6.65;;;14.00;72.50;;;;;;5135140;27;20436;-65
2022/05/25 04:04:00;;;;;;;9.70;6.40;;;13.90;72.40;;;;;;5135451;27;20031;-65
2022/05/25 04:06:26;;;;;;;8.98;5.85;;;14.00;72.50;;;;;;5126827;27;20128;-65
2022/05/25 04:08:52;;;;;;;13.02;6.55;;;14.00;72.40;;;;;;5130055;27;20034;-65
2022/05/25 04:11:17;;;;;;;10.75;6.97;;;14.00;72.50;;;;;;5124136;27;20026;-64
2022/05/25 04:13:43;;;;;;;9.25;5.80;;;14.00;72.50;;;;;;5114512;27;20506;-66
2022/05/25 04:16:08;;;;;;;10.38;7.03;;;14.00;72.40;;;;;;5106330;27;20028;-65
2022/05/25 04:18:34;;;;;;;9.57;6.18;;;14.00;72.40;;;;;;5115487;27;20444;-65
2022/05/25 04:20:59;;;;;;;10.18;6.22;;;14.00;72.50;;;;;;5115621;28;20031;-66
2022/05/25 04:23:27;;;;;;;11.68;5.95;;;14.00;72.50;;;;;;5131296;27;20113;-66
2022/05/25 04:25:54;;;;;;;10.13;6.35;;;14.00;72.50;;;;;;5126310;27;20023;-65
2022/05/25 04:28:23;;;;;;;9.90;6.18;;;14.00;72.50;;;;;;5136403;27;20509;-66
2022/05/25 04:30:49;;;;;;;9.65;6.38;;;14.00;72.50;;;;;;5131213;27;20133;-66
2022/05/25 04:33:15;;;;;;;9.13;6.43;;;14.00;72.40;;;;;;5142978;27;20026;-65
2022/05/25 04:35:41;;;;;;;9.18;6.68;;;14.10;72.40;;;;;;5148940;27;20034;-66
2022/05/25 04:38:08;;;;;;;11.43;7.00;;;14.10;72.40;;;;;;5143663;27;20061;-66
2022/05/25 04:40:40;;;;;;;9.57;6.55;;;14.10;72.30;;;;;;5152114;27;20109;-66
2022/05/25 04:43:12;;;;;;;10.75;7.20;;;14.10;72.30;;;;;;5126755;27;20342;-66
2022/05/25 04:45:39;;;;;;;11.50;7.38;;;14.20;72.40;;;;;;5112530;27;20482;-66
2022/05/25 04:48:04;;;;;;;12.70;7.43;;;14.20;72.30;;;;;;5114503;28;20073;-66
2022/05/25 04:50:42;;;;;;;9.98;7.07;;;14.20;72.30;;;;;;5114234;28;20391;-66
2022/05/25 04:53:10;;;;;;;12.32;7.60;;;14.20;72.30;;;;;;5123842;27;20345;-66
2022/05/25 04:58:26;;;;;;;11.10;6.60;;;14.30;72.30;;;;;;5122458;27;20106;-66
2022/05/25 05:00:52;;;;;;;11.18;7.22;;;14.30;72.20;;;;;;5132706;27;20421;-66
2022/05/25 05:03:19;;;;;;;12.50;7.18;;;14.40;72.20;;;;;;5114535;28;20042;-66
2022/05/25 05:05:45;;;;;;;12.18;7.90;;;14.40;72.00;;;;;;5097579;28;20024;-66
2022/05/25 05:08:11;;;;;;;11.70;7.20;;;14.50;71.90;;;;;;5130951;27;20214;-66
2022/05/25 05:10:37;;;;;;;10.77;7.65;;;14.50;71.80;;;;;;5134789;27;20473;-66
2022/05/25 05:13:04;;;;;;;10.68;7.25;;;14.60;71.70;;;;;;5124185;27;20080;-66
2022/05/25 05:15:34;;;;;;;10.40;7.03;;;14.70;71.50;;;;;;5115005;28;20366;-66
2022/05/25 05:18:00;;;;;;;11.82;7.07;;;14.80;71.30;;;;;;5120048;27;20034;-66
2022/05/25 05:20:43;;;;;;;10.40;6.82;;;14.80;71.10;;;;;;5115706;28;20071;-66
2022/05/25 05:23:08;;;;;;;12.55;7.47;;;14.90;70.90;;;;;;5115591;27;20118;-66
2022/05/25 05:25:35;;;;;;;11.00;6.80;;;15.40;70.30;;;;;;5113657;28;20378;-66
2022/05/25 05:28:23;;;;;;;10.23;6.57;;;15.90;69.30;;;;;;5114783;28;20055;-66
2022/05/25 05:30:55;;;;;;;8.50;6.38;;;16.10;68.60;;;;;;5125286;28;20118;-66
2022/05/25 05:33:22;;;;;;;9.68;6.07;;;16.10;68.40;;;;;;5118107;28;20031;-66
2022/05/25 05:35:52;;;;;;;8.98;6.05;;;16.10;68.40;;;;;;5117420;27;20448;-66
2022/05/25 05:38:19;;;;;;;11.43;5.97;;;16.10;68.40;;;;;;5114489;28;20047;-66
2022/05/25 05:40:45;;;;;;;12.70;6.63;;;16.00;68.40;;;;;;5114628;28;20020;-66
2022/05/25 05:43:12;;;;;;;11.80;6.25;;;16.00;68.30;;;;;;5134982;27;20027;-66
2022/05/25 05:45:40;;;;;;;10.80;6.93;;;16.00;68.30;;;;;;5125887;28;20035;-65
2022/05/25 05:48:14;;;;;;;10.75;6.00;;;16.00;68.40;;;;;;5124584;27;20027;-65
2022/05/25 05:50:41;;;;;;;12.13;6.40;;;16.10;69.00;;;;;;5119138;28;20043;-65
2022/05/25 05:53:10;;;;;;;8.82;5.38;;;16.10;68.20;;;;;;5115050;28;20440;-66
2022/05/25 05:55:36;;;;;;;10.52;6.13;;;16.20;68.10;;;;;;5128121;28;20104;-66
2022/05/25 05:58:02;;;;;;;11.45;5.63;;;16.20;67.90;;;;;;5117139;28;20412;-64
2022/05/25 06:00:27;;;;;;;9.27;5.18;;;16.30;67.70;;;;;;5123991;27;20111;-65
2022/05/25 06:02:53;;;;;;;12.40;5.63;;;16.40;67.50;;;;;;5114548;28;20092;-65
2022/05/25 06:05:18;;;;;;;11.85;5.75;;;16.50;67.30;;;;;;5112830;28;20344;-66
2022/05/25 06:07:44;;;;;;;9.10;5.70;;;16.50;67.10;;;;;;5114574;28;20106;-65
2022/05/25 06:10:11;;;;;;;9.05;5.13;;;16.60;67.00;;;;;;5114175;27;20019;-65
2022/05/25 06:12:36;;;;;;;9.98;5.55;;;16.70;66.90;;;;;;5122629;28;20452;-65
2022/05/25 06:19:25;;;;;;;9.30;5.85;;;16.70;66.70;;;;;;5130729;27;20056;-67
2022/05/25 06:20:34;;;;;;;10.93;5.30;;;16.90;66.20;;;;;;5128448;27;20173;-66
2022/05/25 06:23:00;;;;;;;7.32;4.47;;;17.00;66.00;;;;;;5133109;27;20027;-67
2022/05/25 06:25:25;;;;;;;8.90;5.15;;;17.10;65.80;;;;;;5137628;27;20074;-66
2022/05/25 06:27:51;;;;;;;10.13;5.55;;;17.30;65.50;;;;;;5121914;27;20066;-66
2022/05/25 06:30:16;;;;;;;9.38;5.15;;;17.40;65.20;;;;;;5132835;27;20035;-66
2022/05/25 06:32:42;;;;;;;8.95;4.90;;;17.50;64.90;;;;;;5128550;27;20100;-65
2022/05/25 06:35:10;;;;;;;11.23;5.32;;;17.60;64.80;;;;;;5129510;27;20032;-66
2022/05/25 06:37:35;;;;;;;8.40;4.57;;;17.80;64.50;;;;;;5131112;27;20044;-66
2022/05/25 06:40:01;;;;;;;9.35;5.43;;;17.90;64.20;;;;;;5123975;27;20026;-66
2022/05/25 06:42:28;;;;;;;8.45;4.95;;;18.00;63.90;;;;;;5118669;28;20417;-66
2022/05/25 06:44:56;;;;;;;11.25;5.80;;;18.20;63.60;;;;;;5116137;28;20027;-65
2022/05/25 06:47:21;;;;;;;11.88;4.97;;;18.30;63.30;;;;;;5106455;28;20043;-65
2022/05/25 06:49:50;;;;;;;9.23;4.93;;;18.40;63.00;;;;;;5115838;27;20163;-65
2022/05/25 06:52:16;;;;;;;9.73;5.43;;;18.60;62.60;;;;;;5111575;27;20035;-65
2022/05/25 06:54:42;;;;;;;8.45;5.00;;;18.60;62.40;;;;;;5134951;27;20064;-65
2022/05/25 06:57:07;;;;;;;12.57;4.97;;;18.80;62.30;;;;;;5128307;27;20455;-66
2022/05/25 06:59:33;;;;;;;9.80;5.03;;;18.90;62.00;;;;;;5131340;27;20028;-65
2022/05/25 07:01:59;;;;;;;10.32;4.57;;;19.10;61.50;;;;;;5127979;27;20039;-64
2022/05/25 07:04:24;;;;;;;8.82;4.68;;;19.10;61.10;;;;;;5127899;27;20381;-65
2022/05/25 07:06:50;;;;;;;8.15;4.60;;;19.10;61.00;;;;;;5117290;28;20448;-65
2022/05/25 07:09:16;;;;;;;8.95;4.57;;;19.20;60.90;;;;;;5116873;28;20043;-65
2022/05/25 07:11:42;;;;;;;8.18;4.97;;;19.30;60.60;;;;;;5117533;28;20054;-65
2022/05/25 07:14:10;;;;;;;8.38;4.30;;;19.50;60.40;;;;;;5117185;28;20027;-65
2022/05/25 07:16:36;;;;;;;8.68;4.15;;;19.60;60.20;;;;;;5116205;28;20126;-65
2022/05/25 07:19:02;;;;;;;8.38;4.65;;;19.60;60.20;;;;;;5120072;27;20065;-65
2022/05/25 07:21:31;;;;;;;11.05;4.80;;;19.60;60.70;;;;;;5136000;27;20083;-65
2022/05/25 07:23:58;;;;;;;13.15;5.43;;;19.60;59.80;;;;;;5134657;27;20055;-66
2022/05/25 07:26:26;;;;;;;11.93;5.03;;;19.80;59.50;;;;;;5123129;27;20111;-65
2022/05/25 07:28:52;;;;;;;9.23;4.60;;;20.10;59.00;;;;;;5129458;27;20027;-65
2022/05/25 07:31:28;;;;;;;6.90;4.20;;;20.30;58.70;;;;;;5119901;27;20066;-66
2022/05/25 07:34:02;;;;;;;7.75;4.50;;;20.50;58.20;;;;;;5126199;27;20434;-65
2022/05/25 07:36:29;;;;;;;7.28;3.70;;;20.70;57.60;;;;;;5128530;27;20107;-65
2022/05/25 07:38:59;;;;;;;7.22;3.58;;;20.90;57.40;;;;;;5129072;27;20043;-65
2022/05/25 07:41:26;;;;;;;9.20;4.55;;;20.80;57.40;;;;;;5134968;27;20035;-65
2022/05/25 07:43:57;;;;;;;10.23;5.45;;;20.70;57.40;;;;;;5134830;27;20130;-64
2022/05/25 07:46:24;;;;;;;10.38;5.00;;;20.60;57.50;;;;;;5129086;27;20031;-65
2022/05/25 07:48:50;;;;;;;8.68;4.47;;;20.50;58.30;;;;;;5121180;27;20039;-65
2022/05/25 07:51:16;;;;;;;8.30;4.47;;;20.40;57.70;;;;;;5132945;27;20088;-65
2022/05/25 07:53:57;;;;;;;11.43;5.28;;;20.30;57.80;;;;;;5128354;27;20027;-65
2022/05/25 07:56:32;;;;;;;7.60;3.75;;;20.20;57.80;;;;;;5127771;27;20512;-65
2022/05/25 07:59:02;;;;;;;10.93;4.47;;;20.00;58.00;;;;;;5131369;27;20027;-65
2022/05/25 08:07:01;;;;;;;7.97;4.03;;;20.10;58.50;;;;;;5133682;27;20399;-64
2022/05/25 08:09:29;;;;;;;7.95;4.20;;;20.40;58.00;;;;;;5136481;27;20428;-64
2022/05/25 08:11:55;;;;;;;8.75;4.43;;;20.50;57.60;;;;;;5118956;27;20080;-65
2022/05/25 08:14:25;;;;;;;9.80;4.30;;;20.50;57.50;;;;;;5119824;27;20031;-64
2022/05/25 08:16:51;;;;;;;8.30;4.35;;;20.60;57.40;;;;;;5117349;27;20106;-66
2022/05/25 08:19:17;;;;;;;10.57;5.65;;;20.40;57.50;;;;;;5128142;27;20027;-64
2022/05/25 08:21:42;;;;;;;9.18;4.95;;;20.30;57.60;;;;;;5135471;27;20352;-66
2022/05/25 08:24:08;;;;;;;9.82;4.82;;;20.20;57.90;;;;;;5122846;27;20452;-66
2022/05/25 08:26:34;;;;;;;11.05;5.55;;;20.00;58.10;;;;;;5118825;27;20027;-66
2022/05/25 08:28:59;;;;;;;9.30;4.93;;;20.00;58.20;;;;;;5130677;27;20031;-66
2022/05/25 08:31:25;;;;;;;10.02;5.05;;;19.90;58.30;;;;;;5136491;27;20031;-66
2022/05/25 08:33:51;;;;;;;9.90;5.20;;;20.20;58.00;;;;;;5132838;27;20383;-66
2022/05/25 08:36:16;;;;;;;10.20;5.80;;;20.60;57.20;;;;;;5118066;27;20098;-66
2022/05/25 08:38:42;;;;;;;8.95;5.20;;;20.60;56.70;;;;;;5124789;27;20032;-66
2022/05/25 08:41:08;;;;;;;8.63;5.28;;;20.40;56.80;;;;;;5125058;27;20545;-66
2022/05/25 08:43:43;;;;;;;9.77;5.30;;;20.30;57.10;;;;;;5122392;27;20038;-66
2022/05/25 08:46:14;;;;;;;8.07;4.90;;;20.10;57.40;;;;;;5117919;27;20019;-65
2022/05/25 08:48:41;;;;;;;7.20;4.90;;;20.00;57.50;;;;;;5127965;27;20528;-66
2022/05/25 08:51:11;;;;;;;9.23;5.03;;;20.30;57.10;;;;;;5115075;27;20073;-66
2022/05/25 08:53:38;;;;;;;8.43;4.90;;;20.50;56.60;;;;;;5129750;27;20046;-66
2022/05/25 08:56:40;;;;;;;11.10;6.07;;;20.70;56.30;;;;;;5120435;27;20027;-65
2022/05/25 08:59:12;;;;;;;10.15;5.60;;;21.00;55.90;;;;;;5115973;27;20020;-66
2022/05/25 09:01:48;;;;;;;10.05;5.50;;;21.50;55.40;;;;;;5124744;27;20063;-66
2022/05/25 09:04:48;;;;;;;8.18;5.63;;;21.90;54.60;;;;;;5100501;28;20027;-66
2022/05/25 09:07:42;;;;;;;8.20;5.30;;;22.10;53.80;;;;;;5118547;27;20452;-66
2022/05/25 09:10:11;;;;;;;8.18;4.72;;;21.90;54.20;;;;;;5114498;27;20039;-66
2022/05/25 09:12:52;;;;;;;7.95;5.43;;;21.80;54.10;;;;;;5126654;27;20031;-66
2022/05/25 09:15:17;;;;;;;8.13;6.07;;;21.90;54.00;;;;;;5116960;28;20031;-66
2022/05/25 09:17:53;;;;;;;8.15;6.20;;;21.80;54.00;;;;;;5129437;27;20133;-66
2022/05/25 09:20:28;;;;;;;8.68;4.90;;;21.90;53.90;;;;;;5129059;27;20035;-66
2022/05/25 09:22:55;;;;;;;9.20;6.18;;;22.00;53.50;;;;;;5119291;27;20039;-65
2022/05/25 09:25:21;;;;;;;8.90;5.47;;;22.10;53.40;;;;;;5115794;28;20039;-66
2022/05/25 09:28:02;;;;;;;8.38;4.90;;;22.30;53.20;;;;;;5125342;28;20036;-65
2022/05/25 09:30:30;;;;;;;10.85;6.55;;;22.50;52.60;;;;;;5117174;28;20095;-66
2022/05/25 09:33:13;;;;;;;9.27;5.88;;;22.80;52.30;;;;;;5123593;27;20027;-66
2022/05/25 09:35:45;;;;;;;8.52;6.28;;;22.90;51.80;;;;;;5114505;27;20035;-65
2022/05/25 09:38:30;;;;;;;9.88;7.70;;;22.90;51.80;;;;;;5109736;28;20077;-65
2022/05/25 09:40:55;;;;;;;11.32;8.10;;;22.80;51.70;;;;;;5126998;28;20348;-65
2022/05/25 09:43:24;;;;;;;11.63;8.75;;;22.60;52.50;;;;;;5127270;28;20028;-66
2022/05/25 09:45:53;;;;;;;12.30;9.82;;;22.60;52.00;;;;;;5113114;28;20032;-65
2022/05/25 09:48:25;;;;;;;11.73;10.18;;;22.60;51.90;;;;;;5121316;27;20027;-65
2022/05/25 09:50:59;;;;;;;14.95;11.82;;;22.50;51.70;;;;;;5118574;28;20130;-65
2022/05/25 09:53:32;;;;;;;14.85;13.30;;;22.50;51.70;;;;;;5121141;28;20039;-65
2022/05/25 09:56:19;;;;;;;15.68;13.27;;;22.50;51.40;;;;;;5123743;27;20352;-65
2022/05/25 09:58:49;;;;;;;15.10;11.73;;;22.70;51.20;;;;;;5129308;27;20110;-65
2022/05/25 10:01:28;;;;;;;13.27;11.10;;;22.70;50.80;;;;;;5122993;27;20122;-65
2022/05/25 10:03:54;;;;;;;13.32;10.98;;;22.60;50.90;;;;;;5119207;27;20024;-64
2022/05/25 10:06:25;;;;;;;12.07;10.32;;;22.40;51.00;;;;;;5118249;28;20020;-65
2022/05/25 10:09:06;;;;;;;11.60;10.40;;;22.30;51.00;;;;;;5123421;27;20046;-64
2022/05/25 10:11:44;;;;;;;14.80;10.73;;;22.20;51.10;;;;;;5134863;27;20201;-65
2022/05/25 10:14:31;;;;;;;13.32;10.52;;;22.10;51.20;;;;;;5132372;27;20100;-65
2022/05/25 10:17:06;;;;;;;10.82;9.43;;;22.30;51.00;;;;;;5125762;27;20035;-65
2022/05/25 10:19:37;;;;;;;11.95;8.88;;;22.20;50.80;;;;;;5122799;27;20425;-66
2022/05/25 10:22:02;;;;;;;11.55;9.13;;;22.20;50.60;;;;;;5128581;27;20027;-64
2022/05/25 10:24:39;;;;;;;11.93;9.75;;;22.10;50.50;;;;;;5131477;27;20027;-65
2022/05/25 10:27:18;;;;;;;10.48;7.93;;;22.10;50.30;;;;;;5130339;27;20120;-64
2022/05/25 10:38:20;;;;;;;9.43;6.88;;;22.00;50.20;;;;;;5124294;27;20043;-64
2022/05/25 10:40:46;;;;;;;8.85;6.53;;;21.70;50.30;;;;;;5137077;27;20118;-64
2022/05/25 10:43:17;;;;;;;9.45;6.75;;;21.40;50.70;;;;;;5131015;27;20499;-64
2022/05/25 10:45:51;;;;;;;8.95;6.25;;;21.20;51.10;;;;;;5133464;27;20032;-64
2022/05/25 10:48:45;;;;;;;8.68;5.80;;;21.00;51.10;;;;;;5132879;27;20042;-64
2022/05/25 10:51:30;;;;;;;8.93;5.60;;;20.70;51.10;;;;;;5126150;27;20125;-64
2022/05/25 10:57:00;;;;;;;8.20;5.47;;;20.50;51.70;;;;;;5118065;28;20031;-64
2022/05/25 10:59:40;;;;;;;7.38;5.35;;;20.40;51.70;;;;;;5124036;27;20066;-64
2022/05/25 11:02:41;;;;;;;9.32;5.68;;;20.30;52.00;;;;;;5116787;28;20050;-64
2022/05/25 11:05:23;;;;;;;;;;;20.20;52.40;;;;;;5132104;27;20093;-64
2022/05/25 11:07:54;;;;;;;8.52;4.18;;;20.00;52.70;;;;;;5131691;27;19912;-64
2022/05/25 11:10:42;;;;;;;8.70;5.25;;;19.80;53.30;;;;;;5121678;27;20451;-64
2022/05/25 11:13:29;;;;;;;8.15;5.50;;;19.60;54.20;;;;;;5128430;27;20024;-64
2022/05/25 11:16:15;;;;;;;8.32;5.57;;;19.50;54.70;;;;;;5116823;27;20031;-64
2022/05/25 11:19:10;;;;;;;8.57;5.45;;;19.50;55.30;;;;;;5121339;27;20054;-64
2022/05/25 11:22:01;;;;;;;8.23;5.72;;;19.70;55.20;;;;;;5136595;27;20031;-64
2022/05/25 11:24:41;;;;;;;6.93;4.10;;;20.30;54.90;;;;;;5128433;27;20042;-64
2022/05/25 11:27:36;;;;;;;7.20;3.40;;;20.70;53.80;;;;;;5134077;27;22086;-64
2022/05/25 11:30:12;;;;;;;34.70;6.20;;;20.70;53.30;;;;;;5118495;27;20332;-65
2022/05/25 11:32:56;;;;;;;12.35;3.97;;;20.50;53.30;;;;;;5116710;27;20040;-64
2022/05/25 11:35:40;;;;;;;6.72;2.72;;;20.40;53.40;;;;;;5129813;27;20114;-65
2022/05/25 11:38:39;;;;;;;4.75;2.40;;;20.30;53.40;;;;;;5133391;27;20112;-65
2022/05/25 11:41:32;;;;;;;7.55;2.80;;;20.40;53.40;;;;;;5115578;28;20023;-64
2022/05/25 11:44:04;;;;;;;9.77;2.72;;;20.70;53.00;;;;;;5120409;27;20046;-64
2022/05/25 11:46:44;;;;;;;6.55;2.10;;;20.70;52.70;;;;;;5120267;27;20028;-64
2022/05/25 11:50:02;;;;;;;5.22;1.85;;;20.60;52.40;;;;;;5123644;27;20042;-63
2022/05/25 11:52:45;;;;;;;2.95;1.55;;;20.50;52.00;;;;;;5094440;27;20130;-63
2022/05/25 11:55:23;;;;;;;5.78;1.80;;;20.50;51.80;;;;;;5119754;27;20040;-63
2022/05/25 11:58:27;;;;;;;5.20;1.90;;;20.70;51.40;;;;;;5120440;27;20023;-63
2022/05/25 12:01:06;;;;;;;4.22;1.75;;;21.10;51.10;;;;;;5107288;27;20027;-63
2022/05/25 12:04:02;;;;;;;2.83;1.70;;;21.40;50.40;;;;;;5120667;27;20059;-63
2022/05/25 12:07:00;;;;;;;4.20;2.10;;;21.70;49.80;;;;;;5115918;28;20041;-63
2022/05/25 12:09:55;;;;;;;3.40;1.90;;;21.90;49.50;;;;;;5127944;27;20027;-64
2022/05/25 12:12:33;;;;;;;6.88;1.98;;;22.00;48.90;;;;;;5130312;27;20137;-64
2022/05/25 12:15:09;;;;;;;3.10;1.70;;;22.10;48.70;;;;;;5122526;27;20088;-63
2022/05/25 12:18:01;;;;;;;6.85;2.20;;;22.10;48.40;;;;;;5115359;27;20023;-63
2022/05/25 12:20:41;;;;;;;4.20;1.83;;;22.10;48.00;;;;;;5120818;27;20033;-66
2022/05/25 12:23:13;;;;;;;3.63;1.60;;;22.10;47.90;;;;;;5119037;27;20398;-66
2022/05/25 12:25:48;;;;;;;2.10;1.20;;;22.10;47.60;;;;;;5117670;27;20036;-66
2022/05/25 12:28:14;;;;;;;6.07;1.70;;;22.20;47.20;;;;;;5105332;27;20027;-65
2022/05/25 12:30:44;;;;;;;3.72;1.48;;;22.30;46.60;;;;;;5127641;27;20027;-66
2022/05/25 12:33:13;;;;;;;2.80;1.30;;;22.20;46.40;;;;;;5135931;27;20027;-66
2022/05/25 12:35:40;;;;;;;6.00;2.10;;;22.20;46.40;;;;;;5119531;27;20035;-66
2022/05/25 12:38:08;;;;;;;4.45;1.90;;;22.10;46.40;;;;;;5121447;27;20035;-66
2022/05/25 12:40:43;;;;;;;4.55;2.00;;;22.00;46.10;;;;;;5128161;27;20059;-65
2022/05/25 12:43:40;;;;;;;4.50;2.05;;;21.70;46.10;;;;;;5133588;27;20027;-66
2022/05/25 12:48:56;;;;;;;7.15;1.88;;;21.40;46.80;;;;;;5132880;27;20034;-67
2022/05/25 12:51:43;;;;;;;3.42;1.60;;;21.30;46.80;;;;;;5120646;27;20032;-64
2022/05/25 12:54:31;;;;;;;1.85;1.17;;;21.20;47.20;;;;;;5127126;27;20019;-65
2022/05/25 12:56:59;;;;;;;5.05;1.48;;;21.20;47.80;;;;;;5114846;28;20055;-66
2022/05/25 12:59:35;;;;;;;3.17;1.63;;;20.90;48.20;;;;;;5119643;27;20019;-66
2022/05/25 13:02:07;;;;;;;3.42;1.30;;;20.80;48.90;;;;;;5134927;27;20046;-66
2022/05/25 13:04:42;;;;;;;4.15;1.40;;;20.50;49.20;;;;;;5122046;27;20023;-66
2022/05/25 13:07:31;;;;;;;5.07;1.50;;;20.40;49.60;;;;;;5135588;27;20039;-66
2022/05/25 13:09:56;;;;;;;6.45;1.80;;;20.30;50.00;;;;;;5125446;27;20039;-66
2022/05/25 13:12:40;;;;;;;5.25;1.88;;;20.20;50.30;;;;;;5130786;27;20329;-66
2022/05/25 13:15:36;;;;;;;3.67;1.42;;;20.20;50.20;;;;;;5116980;27;20032;-65
2022/05/25 13:18:02;;;;;;;4.80;1.65;;;20.20;50.20;;;;;;5110820;28;20349;-65
2022/05/25 13:20:28;;;;;;;3.47;1.60;;;20.10;50.90;;;;;;5115169;28;20102;-65
2022/05/25 13:22:58;;;;;;;3.47;1.50;;;20.10;51.00;;;;;;5120758;28;20047;-66
2022/05/25 13:25:50;;;;;;;3.30;1.35;;;20.10;50.30;;;;;;5110392;28;20030;-66
2022/05/25 13:28:15;;;;;;;;;;;20.00;50.30;;;;;;5114850;28;20390;-66
2022/05/25 13:31:15;;;;;;;3.55;1.13;;;20.00;50.50;;;;;;5122475;27;20006;-66
2022/05/25 13:33:45;;;;;;;3.95;1.30;;;20.00;50.50;;;;;;5123552;27;20047;-66
2022/05/25 13:36:21;;;;;;;4.55;1.20;;;20.10;50.50;;;;;;5125534;27;20053;-66
2022/05/25 13:38:56;;;;;;;3.65;1.40;;;20.20;50.20;;;;;;5127698;27;20371;-66